sensor_id;sensor_type;location;lat;lon;timestamp;P1;durP1;ratioP1;P2;durP2;ratioP2
44000;SDS011;29660;42.892;24.710;2023-04-15T00:01:37;10.95;;;8.95;;
44000;SDS011;29660;42.892;24.710;2023-04-15T00:06:59;7.07;;;6.10;;
44000;SDS011;29660;42.892;24.710;2023-04-15T00:12:22;11.68;;;6.90;;
44000;SDS011;29660;42.892;24.710;2023-04-15T00:17:44;28.00;;;19.08;;
44000;SDS011;29660;42.892;24.710;2023-04-15T00:23:07;22.10;;;16.33;;
44000;SDS011;29660;42.892;24.710;2023-04-15T00:28:29;15.50;;;9.48;;
44000;SDS011;29660;42.892;24.710;2023-04-15T00:33:51;9.98;;;4.80;;
44000;SDS011;29660;42.892;24.710;2023-04-15T00:39:15;8.98;;;5.32;;
44000;SDS011;29660;42.892;24.710;2023-04-15T00:44:38;15.48;;;7.78;;
44000;SDS011;29660;42.892;24.710;2023-04-15T00:50:00;13.55;;;8.88;;
44000;SDS011;29660;42.892;24.710;2023-04-15T00:55:22;16.75;;;8.68;;
44000;SDS011;29660;42.892;24.710;2023-04-15T01:00:45;14.23;;;6.10;;
44000;SDS011;29660;42.892;24.710;2023-04-15T01:06:07;11.75;;;7.03;;
44000;SDS011;29660;42.892;24.710;2023-04-15T01:11:29;12.65;;;7.95;;
44000;SDS011;29660;42.892;24.710;2023-04-15T01:16:55;13.68;;;7.53;;
44000;SDS011;29660;42.892;24.710;2023-04-15T01:22:17;10.55;;;6.90;;
44000;SDS011;29660;42.892;24.710;2023-04-15T01:27:39;11.52;;;5.65;;
44000;SDS011;29660;42.892;24.710;2023-04-15T01:33:03;7.45;;;5.25;;
44000;SDS011;29660;42.892;24.710;2023-04-15T01:38:26;11.85;;;6.22;;
44000;SDS011;29660;42.892;24.710;2023-04-15T01:43:48;14.95;;;7.93;;
44000;SDS011;29660;42.892;24.710;2023-04-15T01:49:10;13.35;;;10.00;;
44000;SDS011;29660;42.892;24.710;2023-04-15T01:54:33;10.55;;;8.50;;
44000;SDS011;29660;42.892;24.710;2023-04-15T01:59:55;19.73;;;11.57;;
44000;SDS011;29660;42.892;24.710;2023-04-15T02:05:17;21.77;;;13.20;;
44000;SDS011;29660;42.892;24.710;2023-04-15T02:10:41;27.23;;;15.13;;
44000;SDS011;29660;42.892;24.710;2023-04-15T02:16:04;10.35;;;6.30;;
44000;SDS011;29660;42.892;24.710;2023-04-15T02:21:37;15.25;;;9.00;;
44000;SDS011;29660;42.892;24.710;2023-04-15T02:27:00;14.60;;;6.55;;
44000;SDS011;29660;42.892;24.710;2023-04-15T02:32:22;19.30;;;8.35;;
44000;SDS011;29660;42.892;24.710;2023-04-15T02:38:03;11.30;;;8.48;;
44000;SDS011;29660;42.892;24.710;2023-04-15T02:43:25;17.10;;;11.07;;
44000;SDS011;29660;42.892;24.710;2023-04-15T02:48:48;23.75;;;11.65;;
44000;SDS011;29660;42.892;24.710;2023-04-15T02:54:11;17.40;;;13.48;;
44000;SDS011;29660;42.892;24.710;2023-04-15T02:59:34;31.35;;;22.73;;
44000;SDS011;29660;42.892;24.710;2023-04-15T03:04:56;20.02;;;13.70;;
44000;SDS011;29660;42.892;24.710;2023-04-15T03:10:19;17.10;;;13.43;;
44000;SDS011;29660;42.892;24.710;2023-04-15T03:15:42;16.52;;;11.45;;
44000;SDS011;29660;42.892;24.710;2023-04-15T03:21:04;17.58;;;11.80;;
44000;SDS011;29660;42.892;24.710;2023-04-15T03:26:30;20.40;;;12.27;;
44000;SDS011;29660;42.892;24.710;2023-04-15T03:31:56;30.00;;;20.55;;
44000;SDS011;29660;42.892;24.710;2023-04-15T03:37:36;18.88;;;13.20;;
44000;SDS011;29660;42.892;24.710;2023-04-15T03:42:59;16.65;;;7.90;;
44000;SDS011;29660;42.892;24.710;2023-04-15T03:48:21;12.35;;;6.65;;
44000;SDS011;29660;42.892;24.710;2023-04-15T03:53:43;18.85;;;12.40;;
44000;SDS011;29660;42.892;24.710;2023-04-15T03:59:05;28.15;;;22.50;;
44000;SDS011;29660;42.892;24.710;2023-04-15T04:04:27;39.65;;;27.45;;
44000;SDS011;29660;42.892;24.710;2023-04-15T04:09:50;37.80;;;24.35;;
44000;SDS011;29660;42.892;24.710;2023-04-15T04:15:12;21.48;;;15.25;;
44000;SDS011;29660;42.892;24.710;2023-04-15T04:20:34;29.85;;;21.75;;
44000;SDS011;29660;42.892;24.710;2023-04-15T04:25:56;25.10;;;16.95;;
44000;SDS011;29660;42.892;24.710;2023-04-15T04:31:18;27.95;;;20.48;;
44000;SDS011;29660;42.892;24.710;2023-04-15T04:36:41;28.73;;;19.42;;
44000;SDS011;29660;42.892;24.710;2023-04-15T04:42:03;33.35;;;28.75;;
44000;SDS011;29660;42.892;24.710;2023-04-15T04:47:25;40.83;;;27.65;;
44000;SDS011;29660;42.892;24.710;2023-04-15T04:52:47;25.10;;;17.02;;
44000;SDS011;29660;42.892;24.710;2023-04-15T04:58:09;20.15;;;15.88;;
44000;SDS011;29660;42.892;24.710;2023-04-15T05:03:32;39.00;;;24.70;;
44000;SDS011;29660;42.892;24.710;2023-04-15T05:08:54;45.80;;;25.60;;
44000;SDS011;29660;42.892;24.710;2023-04-15T05:14:17;33.53;;;21.38;;
44000;SDS011;29660;42.892;24.710;2023-04-15T05:19:39;28.10;;;21.38;;
44000;SDS011;29660;42.892;24.710;2023-04-15T05:25:01;34.13;;;21.75;;
44000;SDS011;29660;42.892;24.710;2023-04-15T05:30:24;30.05;;;21.25;;
44000;SDS011;29660;42.892;24.710;2023-04-15T05:35:46;27.15;;;17.30;;
44000;SDS011;29660;42.892;24.710;2023-04-15T05:41:08;23.48;;;17.23;;
44000;SDS011;29660;42.892;24.710;2023-04-15T05:46:30;26.23;;;16.63;;
44000;SDS011;29660;42.892;24.710;2023-04-15T05:51:52;22.85;;;16.27;;
44000;SDS011;29660;42.892;24.710;2023-04-15T05:57:14;27.50;;;20.02;;
44000;SDS011;29660;42.892;24.710;2023-04-15T06:02:37;22.27;;;13.95;;
44000;SDS011;29660;42.892;24.710;2023-04-15T06:07:59;21.67;;;14.68;;
44000;SDS011;29660;42.892;24.710;2023-04-15T06:13:22;19.67;;;12.27;;
44000;SDS011;29660;42.892;24.710;2023-04-15T06:18:44;18.98;;;9.50;;
44000;SDS011;29660;42.892;24.710;2023-04-15T06:24:06;8.57;;;5.78;;
44000;SDS011;29660;42.892;24.710;2023-04-15T06:29:28;20.42;;;11.32;;
44000;SDS011;29660;42.892;24.710;2023-04-15T06:34:51;15.10;;;8.20;;
44000;SDS011;29660;42.892;24.710;2023-04-15T06:40:13;8.02;;;4.30;;
44000;SDS011;29660;42.892;24.710;2023-04-15T06:45:35;18.13;;;10.35;;
44000;SDS011;29660;42.892;24.710;2023-04-15T06:50:57;4.18;;;2.33;;
44000;SDS011;29660;42.892;24.710;2023-04-15T06:56:38;4.78;;;2.58;;
44000;SDS011;29660;42.892;24.710;2023-04-15T07:02:00;7.10;;;2.65;;
44000;SDS011;29660;42.892;24.710;2023-04-15T07:07:22;7.38;;;2.50;;
44000;SDS011;29660;42.892;24.710;2023-04-15T07:12:44;5.18;;;1.55;;
44000;SDS011;29660;42.892;24.710;2023-04-15T07:18:07;7.90;;;1.98;;
44000;SDS011;29660;42.892;24.710;2023-04-15T07:23:30;8.38;;;2.92;;
44000;SDS011;29660;42.892;24.710;2023-04-15T07:28:52;5.43;;;2.90;;
44000;SDS011;29660;42.892;24.710;2023-04-15T07:34:14;10.43;;;1.90;;
44000;SDS011;29660;42.892;24.710;2023-04-15T07:39:37;5.88;;;1.60;;
44000;SDS011;29660;42.892;24.710;2023-04-15T07:44:59;5.78;;;1.90;;
44000;SDS011;29660;42.892;24.710;2023-04-15T07:50:22;4.38;;;1.70;;
44000;SDS011;29660;42.892;24.710;2023-04-15T07:55:45;7.93;;;2.05;;
44000;SDS011;29660;42.892;24.710;2023-04-15T08:01:07;5.50;;;2.53;;
44000;SDS011;29660;42.892;24.710;2023-04-15T08:06:29;2.20;;;1.55;;
44000;SDS011;29660;42.892;24.710;2023-04-15T08:11:51;3.75;;;1.10;;
44000;SDS011;29660;42.892;24.710;2023-04-15T08:17:14;2.20;;;1.15;;
44000;SDS011;29660;42.892;24.710;2023-04-15T08:22:36;6.35;;;1.75;;
44000;SDS011;29660;42.892;24.710;2023-04-15T08:28:02;4.10;;;1.80;;
44000;SDS011;29660;42.892;24.710;2023-04-15T08:33:26;4.10;;;1.65;;
44000;SDS011;29660;42.892;24.710;2023-04-15T08:38:49;5.07;;;1.33;;
44000;SDS011;29660;42.892;24.710;2023-04-15T08:44:12;3.00;;;1.20;;
44000;SDS011;29660;42.892;24.710;2023-04-15T08:49:38;4.72;;;1.25;;
44000;SDS011;29660;42.892;24.710;2023-04-15T08:55:02;7.05;;;1.42;;
44000;SDS011;29660;42.892;24.710;2023-04-15T09:00:44;4.63;;;1.40;;
44000;SDS011;29660;42.892;24.710;2023-04-15T09:06:25;3.70;;;1.15;;
44000;SDS011;29660;42.892;24.710;2023-04-15T09:11:47;2.88;;;1.05;;
44000;SDS011;29660;42.892;24.710;2023-04-15T09:17:10;3.70;;;1.23;;
44000;SDS011;29660;42.892;24.710;2023-04-15T09:22:32;4.55;;;1.20;;
44000;SDS011;29660;42.892;24.710;2023-04-15T09:27:58;5.30;;;1.52;;
44000;SDS011;29660;42.892;24.710;2023-04-15T09:33:22;4.60;;;2.13;;
44000;SDS011;29660;42.892;24.710;2023-04-15T09:38:58;5.45;;;1.20;;
44000;SDS011;29660;42.892;24.710;2023-04-15T09:44:24;4.72;;;1.70;;
44000;SDS011;29660;42.892;24.710;2023-04-15T09:49:57;3.90;;;1.15;;
44000;SDS011;29660;42.892;24.710;2023-04-15T09:55:20;4.40;;;1.67;;
44000;SDS011;29660;42.892;24.710;2023-04-15T10:00:43;3.10;;;1.10;;
44000;SDS011;29660;42.892;24.710;2023-04-15T10:06:07;5.78;;;1.75;;
44000;SDS011;29660;42.892;24.710;2023-04-15T10:11:30;3.08;;;1.20;;
44000;SDS011;29660;42.892;24.710;2023-04-15T10:16:54;3.42;;;1.10;;
44000;SDS011;29660;42.892;24.710;2023-04-15T10:22:21;5.03;;;1.80;;
44000;SDS011;29660;42.892;24.710;2023-04-15T10:27:45;3.80;;;1.42;;
44000;SDS011;29660;42.892;24.710;2023-04-15T10:33:09;4.22;;;1.60;;
44000;SDS011;29660;42.892;24.710;2023-04-15T10:38:39;4.10;;;1.20;;
44000;SDS011;29660;42.892;24.710;2023-04-15T10:44:03;3.45;;;1.48;;
44000;SDS011;29660;42.892;24.710;2023-04-15T10:49:26;3.10;;;0.90;;
44000;SDS011;29660;42.892;24.710;2023-04-15T10:54:48;2.03;;;1.20;;
44000;SDS011;29660;42.892;24.710;2023-04-15T11:00:14;2.40;;;1.20;;
44000;SDS011;29660;42.892;24.710;2023-04-15T11:11:02;2.20;;;1.05;;
44000;SDS011;29660;42.892;24.710;2023-04-15T11:16:24;5.72;;;2.30;;
44000;SDS011;29660;42.892;24.710;2023-04-15T11:21:47;3.42;;;1.30;;
44000;SDS011;29660;42.892;24.710;2023-04-15T11:27:18;3.83;;;1.00;;
44000;SDS011;29660;42.892;24.710;2023-04-15T11:32:44;3.47;;;1.05;;
44000;SDS011;29660;42.892;24.710;2023-04-15T11:38:10;5.57;;;1.55;;
44000;SDS011;29660;42.892;24.710;2023-04-15T11:43:34;4.93;;;1.40;;
44000;SDS011;29660;42.892;24.710;2023-04-15T11:48:56;3.95;;;1.10;;
44000;SDS011;29660;42.892;24.710;2023-04-15T11:54:19;4.35;;;1.95;;
44000;SDS011;29660;42.892;24.710;2023-04-15T11:59:41;3.70;;;1.40;;
44000;SDS011;29660;42.892;24.710;2023-04-15T12:05:06;5.35;;;1.40;;
44000;SDS011;29660;42.892;24.710;2023-04-15T12:10:30;5.90;;;1.58;;
44000;SDS011;29660;42.892;24.710;2023-04-15T12:15:54;4.75;;;2.10;;
44000;SDS011;29660;42.892;24.710;2023-04-15T12:21:19;4.22;;;1.52;;
44000;SDS011;29660;42.892;24.710;2023-04-15T12:26:50;5.20;;;1.83;;
44000;SDS011;29660;42.892;24.710;2023-04-15T12:32:18;5.57;;;1.98;;
44000;SDS011;29660;42.892;24.710;2023-04-15T12:37:43;3.28;;;1.50;;
44000;SDS011;29660;42.892;24.710;2023-04-15T12:43:05;4.13;;;1.40;;
44000;SDS011;29660;42.892;24.710;2023-04-15T12:48:27;5.10;;;1.88;;
44000;SDS011;29660;42.892;24.710;2023-04-15T12:53:49;25.23;;;18.50;;
44000;SDS011;29660;42.892;24.710;2023-04-15T12:59:12;5.38;;;1.50;;
44000;SDS011;29660;42.892;24.710;2023-04-15T13:04:34;5.63;;;2.22;;
44000;SDS011;29660;42.892;24.710;2023-04-15T13:09:56;4.43;;;1.52;;
44000;SDS011;29660;42.892;24.710;2023-04-15T13:15:18;4.00;;;1.50;;
44000;SDS011;29660;42.892;24.710;2023-04-15T13:20:43;3.10;;;1.38;;
44000;SDS011;29660;42.892;24.710;2023-04-15T13:26:06;4.00;;;1.73;;
44000;SDS011;29660;42.892;24.710;2023-04-15T13:31:29;4.60;;;1.90;;
44000;SDS011;29660;42.892;24.710;2023-04-15T13:36:51;5.32;;;1.95;;
44000;SDS011;29660;42.892;24.710;2023-04-15T13:42:13;8.48;;;2.88;;
44000;SDS011;29660;42.892;24.710;2023-04-15T13:47:35;3.70;;;2.08;;
44000;SDS011;29660;42.892;24.710;2023-04-15T13:52:57;6.72;;;4.00;;
44000;SDS011;29660;42.892;24.710;2023-04-15T13:58:19;5.20;;;1.70;;
44000;SDS011;29660;42.892;24.710;2023-04-15T14:03:42;5.03;;;1.80;;
44000;SDS011;29660;42.892;24.710;2023-04-15T14:09:04;29.75;;;20.55;;
44000;SDS011;29660;42.892;24.710;2023-04-15T14:14:26;5.53;;;2.58;;
44000;SDS011;29660;42.892;24.710;2023-04-15T14:20:07;6.93;;;3.42;;
44000;SDS011;29660;42.892;24.710;2023-04-15T14:25:30;5.38;;;3.42;;
44000;SDS011;29660;42.892;24.710;2023-04-15T14:30:54;4.32;;;2.40;;
44000;SDS011;29660;42.892;24.710;2023-04-15T14:36:16;4.82;;;2.22;;
44000;SDS011;29660;42.892;24.710;2023-04-15T14:41:39;4.03;;;2.28;;
44000;SDS011;29660;42.892;24.710;2023-04-15T14:47:01;3.92;;;2.40;;
44000;SDS011;29660;42.892;24.710;2023-04-15T14:52:24;4.72;;;1.90;;
44000;SDS011;29660;42.892;24.710;2023-04-15T14:57:46;3.95;;;1.85;;
44000;SDS011;29660;42.892;24.710;2023-04-15T15:03:09;5.22;;;1.70;;
44000;SDS011;29660;42.892;24.710;2023-04-15T15:08:35;3.85;;;2.00;;
44000;SDS011;29660;42.892;24.710;2023-04-15T15:13:58;3.53;;;1.63;;
44000;SDS011;29660;42.892;24.710;2023-04-15T15:19:20;6.32;;;2.15;;
44000;SDS011;29660;42.892;24.710;2023-04-15T15:24:42;14.95;;;11.32;;
44000;SDS011;29660;42.892;24.710;2023-04-15T15:30:04;4.85;;;1.80;;
44000;SDS011;29660;42.892;24.710;2023-04-15T15:35:27;4.03;;;1.40;;
44000;SDS011;29660;42.892;24.710;2023-04-15T15:40:49;2.95;;;1.92;;
44000;SDS011;29660;42.892;24.710;2023-04-15T15:46:12;4.40;;;1.70;;
44000;SDS011;29660;42.892;24.710;2023-04-15T15:51:35;39.67;;;21.75;;
44000;SDS011;29660;42.892;24.710;2023-04-15T15:56:57;26.02;;;14.80;;
44000;SDS011;29660;42.892;24.710;2023-04-15T16:02:19;9.23;;;4.07;;
44000;SDS011;29660;42.892;24.710;2023-04-15T16:07:55;8.85;;;5.07;;
44000;SDS011;29660;42.892;24.710;2023-04-15T16:13:17;25.55;;;21.00;;
44000;SDS011;29660;42.892;24.710;2023-04-15T16:18:40;4.38;;;1.98;;
44000;SDS011;29660;42.892;24.710;2023-04-15T16:24:02;4.00;;;2.10;;
44000;SDS011;29660;42.892;24.710;2023-04-15T16:29:24;12.57;;;7.97;;
44000;SDS011;29660;42.892;24.710;2023-04-15T16:34:47;20.02;;;13.93;;
44000;SDS011;29660;42.892;24.710;2023-04-15T16:40:09;15.88;;;9.70;;
44000;SDS011;29660;42.892;24.710;2023-04-15T16:45:31;16.65;;;11.45;;
44000;SDS011;29660;42.892;24.710;2023-04-15T16:50:54;12.52;;;8.63;;
44000;SDS011;29660;42.892;24.710;2023-04-15T16:56:16;28.50;;;18.63;;
44000;SDS011;29660;42.892;24.710;2023-04-15T17:01:38;26.58;;;20.02;;
44000;SDS011;29660;42.892;24.710;2023-04-15T17:07:00;10.93;;;9.82;;
44000;SDS011;29660;42.892;24.710;2023-04-15T17:12:22;11.00;;;6.40;;
44000;SDS011;29660;42.892;24.710;2023-04-15T17:17:45;40.00;;;24.80;;
44000;SDS011;29660;42.892;24.710;2023-04-15T17:23:07;65.03;;;34.97;;
44000;SDS011;29660;42.892;24.710;2023-04-15T17:28:29;65.28;;;51.58;;
44000;SDS011;29660;42.892;24.710;2023-04-15T17:33:51;39.22;;;27.92;;
44000;SDS011;29660;42.892;24.710;2023-04-15T17:39:18;33.05;;;20.92;;
44000;SDS011;29660;42.892;24.710;2023-04-15T17:44:41;29.15;;;21.30;;
44000;SDS011;29660;42.892;24.710;2023-04-15T17:50:03;38.75;;;30.27;;
44000;SDS011;29660;42.892;24.710;2023-04-15T17:55:26;47.30;;;33.83;;
44000;SDS011;29660;42.892;24.710;2023-04-15T18:00:48;25.77;;;21.02;;
44000;SDS011;29660;42.892;24.710;2023-04-15T18:06:10;25.50;;;17.95;;
44000;SDS011;29660;42.892;24.710;2023-04-15T18:11:32;19.65;;;13.27;;
44000;SDS011;29660;42.892;24.710;2023-04-15T18:16:55;26.20;;;18.20;;
44000;SDS011;29660;42.892;24.710;2023-04-15T18:22:17;41.38;;;29.98;;
44000;SDS011;29660;42.892;24.710;2023-04-15T18:27:39;50.53;;;41.63;;
44000;SDS011;29660;42.892;24.710;2023-04-15T18:33:01;59.75;;;44.22;;
44000;SDS011;29660;42.892;24.710;2023-04-15T18:38:24;62.30;;;45.78;;
44000;SDS011;29660;42.892;24.710;2023-04-15T18:43:46;65.18;;;48.38;;
44000;SDS011;29660;42.892;24.710;2023-04-15T18:49:09;47.22;;;35.58;;
44000;SDS011;29660;42.892;24.710;2023-04-15T18:54:32;41.17;;;33.30;;
44000;SDS011;29660;42.892;24.710;2023-04-15T18:59:54;45.30;;;33.42;;
44000;SDS011;29660;42.892;24.710;2023-04-15T19:05:16;29.05;;;20.48;;
44000;SDS011;29660;42.892;24.710;2023-04-15T19:10:57;29.38;;;21.90;;
44000;SDS011;29660;42.892;24.710;2023-04-15T19:16:19;67.32;;;43.50;;
44000;SDS011;29660;42.892;24.710;2023-04-15T19:21:41;57.58;;;42.97;;
44000;SDS011;29660;42.892;24.710;2023-04-15T19:27:04;44.10;;;33.83;;
44000;SDS011;29660;42.892;24.710;2023-04-15T19:32:26;39.33;;;29.30;;
44000;SDS011;29660;42.892;24.710;2023-04-15T19:37:48;19.73;;;12.82;;
44000;SDS011;29660;42.892;24.710;2023-04-15T19:43:10;19.40;;;10.93;;
44000;SDS011;29660;42.892;24.710;2023-04-15T19:48:32;29.73;;;20.15;;
44000;SDS011;29660;42.892;24.710;2023-04-15T19:53:54;18.27;;;12.38;;
44000;SDS011;29660;42.892;24.710;2023-04-15T19:59:17;16.02;;;9.57;;
44000;SDS011;29660;42.892;24.710;2023-04-15T20:04:39;22.95;;;11.10;;
44000;SDS011;29660;42.892;24.710;2023-04-15T20:10:02;77.28;;;43.45;;
44000;SDS011;29660;42.892;24.710;2023-04-15T20:15:24;120.43;;;75.40;;
44000;SDS011;29660;42.892;24.710;2023-04-15T20:20:46;28.77;;;22.58;;
44000;SDS011;29660;42.892;24.710;2023-04-15T20:26:08;24.63;;;18.98;;
44000;SDS011;29660;42.892;24.710;2023-04-15T20:31:31;26.30;;;19.25;;
44000;SDS011;29660;42.892;24.710;2023-04-15T20:36:54;22.92;;;14.85;;
44000;SDS011;29660;42.892;24.710;2023-04-15T20:42:35;22.42;;;15.45;;
44000;SDS011;29660;42.892;24.710;2023-04-15T20:47:57;39.65;;;22.42;;
44000;SDS011;29660;42.892;24.710;2023-04-15T20:53:19;56.70;;;32.70;;
44000;SDS011;29660;42.892;24.710;2023-04-15T20:58:41;47.70;;;26.98;;
44000;SDS011;29660;42.892;24.710;2023-04-15T21:04:04;30.13;;;17.88;;
44000;SDS011;29660;42.892;24.710;2023-04-15T21:09:26;26.15;;;16.00;;
44000;SDS011;29660;42.892;24.710;2023-04-15T21:15:07;15.75;;;11.40;;
44000;SDS011;29660;42.892;24.710;2023-04-15T21:20:29;20.23;;;11.32;;
44000;SDS011;29660;42.892;24.710;2023-04-15T21:25:51;22.38;;;13.70;;
44000;SDS011;29660;42.892;24.710;2023-04-15T21:31:14;20.23;;;14.98;;
44000;SDS011;29660;42.892;24.710;2023-04-15T21:36:37;14.82;;;7.75;;
44000;SDS011;29660;42.892;24.710;2023-04-15T21:41:59;15.57;;;9.73;;
44000;SDS011;29660;42.892;24.710;2023-04-15T21:47:22;19.52;;;10.45;;
44000;SDS011;29660;42.892;24.710;2023-04-15T21:52:44;18.55;;;12.40;;
44000;SDS011;29660;42.892;24.710;2023-04-15T21:58:06;19.05;;;12.80;;
44000;SDS011;29660;42.892;24.710;2023-04-15T22:03:32;15.52;;;9.15;;
44000;SDS011;29660;42.892;24.710;2023-04-15T22:08:55;13.45;;;8.98;;
44000;SDS011;29660;42.892;24.710;2023-04-15T22:14:18;59.08;;;39.92;;
44000;SDS011;29660;42.892;24.710;2023-04-15T22:19:59;63.45;;;38.53;;
44000;SDS011;29660;42.892;24.710;2023-04-15T22:25:21;54.15;;;30.60;;
44000;SDS011;29660;42.892;24.710;2023-04-15T22:30:43;56.75;;;32.75;;
44000;SDS011;29660;42.892;24.710;2023-04-15T22:36:05;43.20;;;24.15;;
44000;SDS011;29660;42.892;24.710;2023-04-15T22:41:27;22.08;;;15.27;;
44000;SDS011;29660;42.892;24.710;2023-04-15T22:46:49;22.38;;;14.38;;
44000;SDS011;29660;42.892;24.710;2023-04-15T22:52:12;50.33;;;36.42;;
44000;SDS011;29660;42.892;24.710;2023-04-15T22:57:44;49.35;;;32.05;;
44000;SDS011;29660;42.892;24.710;2023-04-15T23:03:06;30.33;;;19.05;;
44000;SDS011;29660;42.892;24.710;2023-04-15T23:08:28;39.13;;;22.02;;
44000;SDS011;29660;42.892;24.710;2023-04-15T23:14:09;19.65;;;12.55;;
44000;SDS011;29660;42.892;24.710;2023-04-15T23:19:31;15.50;;;10.13;;
44000;SDS011;29660;42.892;24.710;2023-04-15T23:24:53;12.98;;;10.88;;
44000;SDS011;29660;42.892;24.710;2023-04-15T23:30:15;13.85;;;9.27;;
44000;SDS011;29660;42.892;24.710;2023-04-15T23:35:37;12.20;;;8.55;;
44000;SDS011;29660;42.892;24.710;2023-04-15T23:41:00;14.40;;;9.50;;
44000;SDS011;29660;42.892;24.710;2023-04-15T23:46:22;15.32;;;6.47;;
44000;SDS011;29660;42.892;24.710;2023-04-15T23:51:44;16.65;;;10.25;;
44000;SDS011;29660;42.892;24.710;2023-04-15T23:57:06;19.92;;;12.25;;
